createdAt,value
2019-01-30T00:00:48.979Z,91.91
2019-01-30T00:02:01.222Z,91.73
2019-01-30T00:02:49.739Z,92.12
2019-01-30T00:03:49.844Z,92.97
2019-01-30T00:04:49.773Z,92.97
2019-01-30T00:07:30.382Z,93.99
2019-01-30T00:12:34.478Z,96.15
2019-01-30T00:13:34.811Z,97.27
2019-01-30T00:14:35.077Z,97.67
2019-01-30T00:15:34.947Z,98.33
2019-01-30T00:16:36.662Z,99.62
2019-01-30T00:17:36.169Z,99.74
2019-01-30T00:18:33.895Z,99.99
2019-01-30T00:19:36.601Z,99.99
2019-01-30T00:20:35.630Z,99.99
2019-01-30T00:21:35.714Z,99.99
2019-01-30T00:22:38.105Z,99.99
2019-01-30T00:30:58.371Z,99.51
2019-01-30T00:31:59.215Z,99.29
2019-01-30T00:33:10.576Z,99.51
2019-01-30T00:35:48.265Z,99.25
2019-01-30T00:36:30.111Z,99.84
2019-01-30T00:37:41.775Z,99.52
2019-01-30T00:38:46.759Z,99.63
2019-01-30T00:39:30.217Z,99.79
2019-01-30T00:40:48.667Z,99.54
2019-01-30T00:42:49.760Z,99.60
2019-01-30T00:43:50.830Z,99.60
2019-01-30T00:46:03.927Z,99.44
2019-01-30T00:47:26.313Z,99.66
2019-01-30T00:48:07.331Z,99.76
2019-01-30T00:49:04.790Z,98.87
2019-01-30T00:50:04.815Z,99.19
2019-01-30T00:51:04.655Z,99.51
2019-01-30T00:52:03.653Z,99.40
2019-01-30T00:53:04.331Z,98.55
2019-01-30T00:54:19.607Z,98.77
2019-01-30T00:55:04.854Z,98.93
2019-01-30T00:56:13.709Z,98.41
2019-01-30T00:58:25.051Z,97.35
2019-01-30T01:00:50.917Z,96.61
2019-01-30T01:01:40.276Z,97.45
2019-01-30T01:02:39.855Z,96.93
2019-01-30T01:03:39.995Z,97.14
2019-01-30T01:04:39.831Z,97.31
2019-01-30T01:05:39.751Z,96.78
2019-01-30T01:06:39.717Z,96.89
2019-01-30T01:07:39.705Z,97.03
2019-01-30T01:08:40.699Z,97.31
2019-01-30T01:09:40.707Z,97.09
2019-01-30T01:10:40.752Z,96.78
2019-01-30T01:11:39.618Z,96.53
2019-01-30T01:12:53.617Z,96.57
2019-01-30T01:13:41.400Z,96.57
2019-01-30T01:14:40.008Z,96.57
2019-01-30T01:15:39.705Z,96.47
2019-01-30T01:16:39.715Z,96.57
2019-01-30T01:17:40.627Z,96.47
2019-01-30T01:18:39.571Z,96.53
2019-01-30T01:19:42.139Z,96.42
2019-01-30T01:20:40.563Z,96.42
2019-01-30T01:21:39.846Z,96.31
2019-01-30T01:22:39.591Z,96.27
2019-01-30T01:26:29.182Z,95.01
2019-01-30T01:27:29.577Z,94.38
2019-01-30T01:28:28.739Z,94.48
2019-01-30T01:29:29.571Z,94.69
2019-01-30T01:30:28.659Z,94.31
2019-01-30T01:31:29.372Z,94.06
2019-01-30T01:32:28.562Z,94.10
2019-01-30T01:33:28.850Z,94.63
2019-01-30T01:34:28.566Z,94.10
2019-01-30T01:35:28.496Z,94.53
2019-01-30T01:36:28.560Z,94.84
2019-01-30T01:37:28.538Z,94.73
2019-01-30T01:38:28.561Z,94.84
2019-01-30T01:39:28.458Z,94.21
2019-01-30T01:40:28.521Z,94.35
2019-01-30T01:41:28.530Z,94.10
2019-01-30T01:42:40.759Z,94.67
2019-01-30T01:43:29.996Z,94.89
2019-01-30T01:44:28.630Z,95.20
2019-01-30T01:45:28.540Z,95.62
2019-01-30T01:46:28.610Z,94.67
2019-01-30T01:47:29.396Z,94.35
2019-01-30T01:48:28.365Z,94.67
2019-01-30T01:49:28.406Z,94.57
2019-01-30T01:50:29.402Z,94.35
2019-01-30T01:51:28.323Z,94.57
2019-01-30T01:52:28.337Z,94.82
2019-01-30T01:53:28.323Z,95.03
2019-01-30T01:54:28.388Z,94.82
2019-01-30T01:55:28.971Z,94.89
2019-01-30T01:56:28.855Z,94.57
2019-01-30T01:57:28.264Z,94.57
2019-01-30T01:58:28.303Z,94.89
2019-01-30T01:59:28.322Z,94.57
2019-01-30T02:00:35.244Z,94.35
2019-01-30T02:01:28.839Z,94.35
2019-01-30T02:02:28.230Z,94.15
2019-01-30T02:03:28.208Z,93.93
2019-01-30T02:04:29.149Z,93.93
2019-01-30T02:05:28.238Z,93.83
2019-01-30T02:06:28.165Z,93.51
2019-01-30T02:07:28.174Z,93.09
2019-01-30T02:08:28.215Z,93.19
2019-01-30T02:09:28.903Z,93.45
2019-01-30T02:10:28.146Z,93.55
2019-01-30T02:11:28.197Z,93.51
2019-01-30T02:12:29.154Z,93.45
2019-01-30T02:13:29.176Z,93.83
2019-01-30T02:14:28.126Z,93.77
2019-01-30T02:15:28.132Z,93.41
2019-01-30T02:16:28.085Z,93.34
2019-01-30T02:17:28.087Z,93.24
2019-01-30T02:18:28.035Z,93.66
2019-01-30T02:19:28.089Z,93.24
2019-01-30T02:20:28.050Z,93.77
2019-01-30T02:21:27.995Z,93.62
2019-01-30T02:22:30.388Z,93.45
2019-01-30T02:23:50.036Z,92.92
2019-01-30T02:24:27.985Z,92.71
2019-01-30T02:25:27.946Z,92.60
2019-01-30T02:26:28.021Z,92.71
2019-01-30T02:27:29.013Z,92.76
2019-01-30T02:28:27.978Z,93.34
2019-01-30T02:29:27.963Z,93.55
2019-01-30T02:30:28.030Z,92.65
2019-01-30T02:31:27.993Z,93.34
2019-01-30T02:32:31.379Z,93.34
2019-01-30T02:33:27.918Z,92.82
2019-01-30T02:34:29.010Z,92.82
2019-01-30T02:35:28.732Z,91.66
2019-01-30T02:36:27.876Z,92.40
2019-01-30T02:37:27.873Z,92.18
2019-01-30T02:38:27.920Z,92.29
2019-01-30T02:40:39.591Z,91.76
2019-01-30T02:41:39.566Z,91.97
2019-01-30T02:42:39.461Z,91.97
2019-01-30T02:43:39.438Z,91.76
2019-01-30T02:44:39.393Z,92.08
2019-01-30T02:45:39.418Z,91.80
2019-01-30T02:46:39.429Z,92.65
2019-01-30T02:47:39.332Z,92.12
2019-01-30T02:48:39.410Z,92.22
2019-01-30T02:49:39.342Z,92.33
2019-01-30T02:50:39.323Z,91.91
2019-01-30T02:51:40.347Z,91.49
2019-01-30T02:52:39.318Z,91.70
2019-01-30T02:53:50.364Z,91.95
2019-01-30T02:54:39.313Z,92.33
2019-01-30T02:55:39.290Z,92.33
2019-01-30T02:56:39.258Z,92.22
2019-01-30T02:57:39.265Z,91.74
2019-01-30T02:58:39.161Z,92.16
2019-01-30T02:59:39.294Z,91.85
2019-01-30T03:00:39.274Z,91.95
2019-01-30T03:01:39.210Z,92.05
2019-01-30T03:02:39.215Z,91.89
2019-01-30T03:03:40.942Z,91.85
2019-01-30T03:04:39.208Z,92.20
2019-01-30T03:05:39.160Z,92.16
2019-01-30T03:06:40.164Z,91.42
2019-01-30T03:07:39.156Z,92.22
2019-01-30T03:09:10.934Z,92.22
2019-01-30T03:09:39.123Z,91.70
2019-01-30T03:10:39.121Z,92.02
2019-01-30T03:11:39.074Z,91.28
2019-01-30T03:12:39.116Z,91.49
2019-01-30T03:13:39.790Z,90.96
2019-01-30T03:14:39.076Z,91.17
2019-01-30T03:15:39.153Z,91.06
2019-01-30T03:16:39.243Z,91.06
2019-01-30T03:17:38.968Z,90.92
2019-01-30T03:18:38.989Z,90.39
2019-01-30T03:19:39.819Z,90.25
2019-01-30T03:20:39.007Z,89.72
2019-01-30T03:21:39.007Z,89.09
2019-01-30T03:22:39.835Z,88.60
2019-01-30T03:23:38.970Z,88.66
2019-01-30T03:24:38.953Z,88.07
2019-01-30T03:25:39.930Z,88.60
2019-01-30T03:26:38.958Z,88.24
2019-01-30T03:27:39.978Z,88.56
2019-01-30T03:28:38.892Z,88.45
2019-01-30T03:29:38.935Z,88.03
2019-01-30T03:30:38.846Z,87.76
2019-01-30T03:31:38.893Z,87.86
2019-01-30T03:32:39.777Z,88.07
2019-01-30T03:33:38.844Z,87.76
2019-01-30T03:34:38.865Z,87.33
2019-01-30T03:35:38.808Z,87.76
2019-01-30T03:36:38.796Z,87.79
2019-01-30T03:37:38.778Z,88.01
2019-01-30T03:38:38.818Z,87.86
2019-01-30T03:39:39.770Z,88.32
2019-01-30T03:40:38.743Z,87.76
2019-01-30T03:41:38.946Z,87.69
2019-01-30T03:43:00.160Z,87.79
2019-01-30T03:45:01.197Z,87.65
2019-01-30T03:46:12.809Z,87.33
2019-01-30T03:49:17.229Z,88.28
2019-01-30T03:50:19.457Z,86.17
2019-01-30T03:51:19.988Z,86.59
2019-01-30T03:52:22.545Z,86.70
2019-01-30T03:53:23.565Z,86.70
2019-01-30T03:54:20.617Z,86.80
2019-01-30T03:55:18.648Z,86.59
2019-01-30T03:56:19.638Z,87.02
2019-01-30T03:58:37.110Z,86.70
2019-01-30T03:59:48.931Z,86.42
2019-01-30T04:01:50.885Z,87.16
2019-01-30T04:03:03.860Z,86.53
2019-01-30T04:04:08.326Z,86.63
2019-01-30T04:04:51.165Z,86.95
2019-01-30T04:06:04.772Z,86.63
2019-01-30T04:07:03.446Z,86.63
2019-01-30T04:08:04.449Z,86.74
2019-01-30T04:09:01.971Z,86.53
2019-01-30T04:09:59.957Z,86.95
2019-01-30T04:11:07.838Z,85.85
2019-01-30T04:12:07.692Z,85.96
2019-01-30T04:13:05.230Z,85.85
2019-01-30T04:14:01.919Z,85.64
2019-01-30T04:16:43.813Z,85.43
2019-01-30T04:17:57.142Z,85.75
2019-01-30T04:18:57.714Z,84.97
2019-01-30T04:19:56.053Z,85.11
2019-01-30T04:21:00.439Z,85.33
2019-01-30T04:25:35.641Z,85.26
2019-01-30T04:26:48.692Z,85.89
2019-01-30T04:28:55.835Z,86.53
2019-01-30T04:30:22.881Z,86.67
2019-01-30T04:30:56.327Z,86.74
2019-01-30T04:31:56.949Z,86.74
2019-01-30T04:34:19.471Z,86.78
2019-01-30T04:36:35.671Z,87.09
2019-01-30T04:43:15.488Z,85.68
2019-01-30T04:44:12.600Z,84.84
2019-01-30T04:45:22.856Z,85.58
2019-01-30T04:46:19.990Z,85.79
2019-01-30T04:48:15.460Z,85.89
2019-01-30T04:49:16.146Z,86.04
2019-01-30T04:50:27.805Z,85.83
2019-01-30T04:51:26.868Z,85.93
2019-01-30T04:52:32.586Z,85.72
2019-01-30T04:55:07.846Z,84.74
2019-01-30T04:55:58.222Z,83.89
2019-01-30T04:57:38.545Z,83.89
2019-01-30T04:58:38.629Z,83.36
2019-01-30T05:00:57.135Z,84.63
2019-01-30T05:06:16.113Z,82.17
2019-01-30T05:07:30.089Z,82.59
2019-01-30T05:10:41.173Z,83.15
2019-01-30T05:13:15.723Z,83.50
2019-01-30T05:14:13.454Z,83.15
2019-01-30T05:14:59.283Z,82.52
2019-01-30T05:15:57.376Z,80.27
2019-01-30T05:16:57.341Z,80.54
2019-01-30T05:17:58.098Z,80.65
2019-01-30T05:18:57.386Z,81.01
2019-01-30T05:19:57.339Z,81.74
2019-01-30T05:20:58.317Z,81.32
2019-01-30T05:21:57.337Z,81.63
2019-01-30T05:22:57.334Z,81.53
2019-01-30T05:24:12.141Z,81.63
2019-01-30T05:24:57.403Z,82.06
2019-01-30T05:25:59.868Z,82.17
2019-01-30T05:26:57.307Z,82.62
2019-01-30T05:27:57.259Z,82.09
2019-01-30T05:28:57.233Z,82.09
2019-01-30T05:29:57.280Z,82.20
2019-01-30T05:30:57.198Z,82.94
2019-01-30T05:32:01.404Z,81.99
2019-01-30T05:32:57.699Z,82.62
2019-01-30T05:33:58.945Z,81.32
2019-01-30T05:34:57.226Z,81.46
2019-01-30T05:35:58.197Z,80.83
2019-01-30T05:36:58.195Z,80.93
2019-01-30T05:37:57.204Z,80.90
2019-01-30T05:38:57.205Z,80.79
2019-01-30T05:39:57.131Z,80.93
2019-01-30T05:40:57.117Z,81.46
2019-01-30T05:41:57.123Z,81.25
2019-01-30T05:42:57.058Z,81.25
2019-01-30T05:43:57.090Z,82.24
2019-01-30T05:44:57.090Z,81.35
2019-01-30T05:45:57.132Z,81.35
2019-01-30T05:46:57.079Z,81.78
2019-01-30T05:47:58.002Z,81.57
2019-01-30T05:48:57.135Z,81.15
2019-01-30T05:49:57.191Z,82.31
2019-01-30T05:50:57.153Z,82.20
2019-01-30T05:51:57.651Z,81.99
2019-01-30T05:52:57.623Z,81.04
2019-01-30T05:53:57.015Z,81.35
2019-01-30T05:55:18.060Z,81.15
2019-01-30T05:55:57.984Z,81.35
2019-01-30T05:56:56.925Z,81.35
2019-01-30T05:57:56.939Z,81.04
2019-01-30T05:58:56.974Z,81.21
2019-01-30T05:59:56.969Z,80.79
2019-01-30T06:00:57.001Z,81.04
2019-01-30T06:01:56.898Z,81.35
2019-01-30T06:02:56.925Z,81.04
2019-01-30T06:03:56.864Z,81.46
2019-01-30T06:04:56.872Z,81.04
2019-01-30T06:05:56.938Z,80.83
2019-01-30T06:06:56.893Z,80.83
2019-01-30T06:07:56.870Z,80.73
2019-01-30T06:08:56.830Z,80.51
2019-01-30T06:09:57.872Z,80.41
2019-01-30T06:10:56.790Z,80.73
2019-01-30T06:11:56.794Z,80.73
2019-01-30T06:12:57.731Z,80.83
2019-01-30T06:13:57.654Z,80.51
2019-01-30T06:14:56.745Z,80.83
2019-01-30T06:15:56.740Z,80.73
2019-01-30T06:16:59.105Z,80.83
2019-01-30T06:17:57.736Z,80.30
2019-01-30T06:18:56.716Z,80.73
2019-01-30T06:19:56.697Z,80.51
2019-01-30T06:20:56.724Z,81.04
2019-01-30T06:21:58.658Z,80.73
2019-01-30T06:22:56.664Z,80.93
2019-01-30T06:23:56.662Z,80.93
2019-01-30T06:26:10.203Z,82.03
2019-01-30T06:27:10.171Z,82.13
2019-01-30T06:28:10.431Z,82.03
2019-01-30T06:29:10.068Z,82.76
2019-01-30T06:30:10.983Z,82.56
2019-01-30T06:31:12.618Z,82.70
2019-01-30T06:32:09.925Z,83.23
2019-01-30T06:33:10.993Z,82.38
2019-01-30T06:34:09.901Z,82.91
2019-01-30T06:35:09.929Z,83.44
2019-01-30T06:36:10.853Z,83.44
2019-01-30T06:37:09.890Z,83.65
2019-01-30T06:38:09.921Z,83.54
2019-01-30T06:41:38.235Z,84.22
2019-01-30T06:42:38.522Z,84.11
2019-01-30T06:43:38.003Z,83.90
2019-01-30T06:44:37.985Z,83.90
2019-01-30T06:45:37.980Z,84.11
2019-01-30T06:46:38.661Z,84.04
2019-01-30T06:47:37.896Z,84.11
2019-01-30T06:48:38.603Z,84.64
2019-01-30T06:49:38.820Z,84.32
2019-01-30T06:50:38.820Z,84.22
2019-01-30T06:51:39.001Z,84.25
2019-01-30T06:52:38.838Z,84.53
2019-01-30T06:53:37.815Z,84.36
2019-01-30T06:54:41.035Z,84.00
2019-01-30T06:55:37.830Z,84.00
2019-01-30T06:56:37.771Z,84.14
2019-01-30T06:57:37.828Z,83.72
2019-01-30T06:58:37.781Z,83.62
2019-01-30T06:59:37.713Z,84.57
2019-01-30T07:00:37.778Z,84.57
2019-01-30T07:01:38.719Z,84.78
2019-01-30T07:02:38.782Z,84.78
2019-01-30T07:03:37.747Z,84.89
2019-01-30T07:04:38.948Z,84.67
2019-01-30T07:05:38.726Z,84.36
2019-01-30T07:06:37.641Z,84.67
2019-01-30T07:07:37.684Z,84.67
2019-01-30T07:08:38.643Z,84.46
2019-01-30T07:09:37.636Z,85.31
2019-01-30T07:10:38.762Z,85.52
2019-01-30T07:11:39.159Z,85.52
2019-01-30T07:12:37.644Z,85.21
2019-01-30T07:13:40.117Z,85.21
2019-01-30T07:14:38.186Z,85.52
2019-01-30T07:15:38.196Z,84.71
2019-01-30T07:16:37.568Z,85.14
2019-01-30T07:17:38.491Z,85.31
2019-01-30T07:18:38.161Z,84.92
2019-01-30T07:19:37.523Z,84.67
2019-01-30T07:20:39.151Z,84.36
2019-01-30T07:21:37.493Z,84.82
2019-01-30T07:22:37.468Z,84.04
2019-01-30T07:23:37.476Z,84.82
2019-01-30T07:24:37.541Z,84.82
2019-01-30T07:25:37.532Z,84.78
2019-01-30T07:26:37.449Z,84.89
2019-01-30T07:27:37.473Z,84.82
2019-01-30T07:28:39.154Z,84.99
2019-01-30T07:29:38.167Z,84.67
2019-01-30T07:30:37.455Z,84.39
2019-01-30T07:31:37.367Z,84.14
2019-01-30T07:32:42.354Z,84.50
2019-01-30T07:33:39.142Z,84.92
2019-01-30T07:34:38.378Z,84.89
2019-01-30T07:35:37.397Z,85.21
2019-01-30T07:36:38.391Z,84.78
2019-01-30T07:37:37.291Z,84.78
2019-01-30T07:38:50.014Z,84.67
2019-01-30T07:39:37.569Z,84.67
2019-01-30T07:40:37.430Z,84.46
2019-01-30T07:41:38.668Z,84.78
2019-01-30T07:42:37.307Z,84.67
2019-01-30T07:43:37.299Z,84.67
2019-01-30T07:44:37.277Z,85.10
2019-01-30T07:45:38.206Z,84.67
2019-01-30T07:46:37.230Z,84.67
2019-01-30T07:47:37.242Z,85.10
2019-01-30T07:48:37.204Z,84.89
2019-01-30T07:49:38.183Z,84.78
2019-01-30T07:50:37.153Z,84.78
2019-01-30T07:51:37.257Z,84.67
2019-01-30T07:52:37.113Z,84.67
2019-01-30T07:53:37.146Z,84.99
2019-01-30T07:54:41.751Z,84.99
2019-01-30T07:55:37.169Z,85.73
2019-01-30T07:56:38.124Z,84.67
2019-01-30T07:57:38.151Z,84.36
2019-01-30T07:58:37.062Z,83.94
2019-01-30T07:59:37.079Z,84.32
2019-01-30T08:00:37.030Z,83.79
2019-01-30T08:01:38.150Z,84.53
2019-01-30T08:02:37.697Z,84.11
2019-01-30T08:03:39.050Z,84.53
2019-01-30T08:04:37.702Z,84.00
2019-01-30T08:05:37.728Z,84.53
2019-01-30T08:06:37.698Z,83.97
2019-01-30T08:07:37.080Z,84.07
2019-01-30T08:08:37.008Z,83.75
2019-01-30T08:09:36.934Z,83.44
2019-01-30T08:10:36.949Z,83.44
2019-01-30T08:11:36.979Z,83.44
2019-01-30T08:12:36.957Z,83.23
2019-01-30T08:13:38.659Z,83.18
2019-01-30T08:14:36.906Z,82.91
2019-01-30T08:15:36.913Z,83.01
2019-01-30T08:16:36.918Z,83.08
2019-01-30T08:17:36.847Z,82.80
2019-01-30T08:18:36.859Z,83.01
2019-01-30T08:19:36.899Z,83.12
2019-01-30T08:20:36.827Z,83.29
2019-01-30T08:21:37.883Z,83.18
2019-01-30T08:22:36.846Z,82.87
2019-01-30T08:23:36.825Z,83.29
2019-01-30T08:26:02.441Z,82.98
2019-01-30T08:26:48.975Z,83.08
2019-01-30T08:27:49.011Z,82.76
2019-01-30T08:28:49.126Z,82.98
2019-01-30T08:29:49.251Z,82.98
2019-01-30T08:30:48.940Z,82.83
2019-01-30T08:31:48.920Z,82.52
2019-01-30T08:32:48.847Z,83.04
2019-01-30T08:33:49.717Z,82.73
2019-01-30T08:34:48.665Z,82.62
2019-01-30T08:35:48.666Z,82.52
2019-01-30T08:36:48.649Z,83.15
2019-01-30T08:37:48.671Z,82.94
2019-01-30T08:38:49.133Z,82.62
2019-01-30T08:39:50.249Z,82.52
2019-01-30T08:40:48.686Z,82.94
2019-01-30T08:41:48.595Z,82.94
2019-01-30T08:42:48.633Z,82.62
2019-01-30T08:43:49.595Z,83.15
2019-01-30T08:44:48.672Z,82.62
2019-01-30T08:45:48.548Z,82.73
2019-01-30T08:46:48.563Z,82.52
2019-01-30T08:47:48.571Z,82.09
2019-01-30T08:48:49.568Z,82.83
2019-01-30T08:49:48.519Z,82.73
2019-01-30T08:50:49.276Z,83.04
2019-01-30T08:51:49.307Z,82.94
2019-01-30T08:52:51.222Z,83.15
2019-01-30T08:53:49.503Z,83.04
2019-01-30T08:55:09.534Z,83.47
2019-01-30T08:55:48.471Z,82.87
2019-01-30T08:56:52.925Z,83.47
2019-01-30T08:57:48.492Z,82.94
2019-01-30T08:58:48.427Z,83.22
2019-01-30T08:59:48.419Z,83.04
2019-01-30T09:00:48.439Z,83.11
2019-01-30T09:01:48.391Z,82.69
2019-01-30T09:02:48.339Z,82.59
2019-01-30T09:03:49.300Z,82.37
2019-01-30T09:04:48.357Z,82.41
2019-01-30T09:05:48.382Z,82.83
2019-01-30T09:06:49.357Z,82.79
2019-01-30T09:07:48.346Z,83.22
2019-01-30T09:08:48.335Z,82.90
2019-01-30T09:12:26.294Z,82.69
2019-01-30T09:13:26.489Z,82.48
2019-01-30T09:14:26.094Z,82.37
2019-01-30T09:15:27.084Z,82.69
2019-01-30T09:16:27.147Z,82.48
2019-01-30T09:17:25.970Z,82.55
2019-01-30T09:18:26.027Z,82.34
2019-01-30T09:19:26.623Z,82.55
2019-01-30T09:20:25.950Z,82.76
2019-01-30T09:21:27.361Z,82.02
2019-01-30T09:22:25.929Z,82.44
2019-01-30T09:23:26.992Z,81.92
2019-01-30T09:24:25.938Z,81.92
2019-01-30T09:26:40.581Z,82.62
2019-01-30T09:27:40.532Z,82.93
2019-01-30T09:28:40.899Z,82.30
2019-01-30T09:29:40.357Z,81.70
2019-01-30T09:30:40.355Z,81.49
2019-01-30T09:31:41.298Z,82.55
2019-01-30T09:32:40.294Z,82.23
2019-01-30T09:33:40.296Z,82.30
2019-01-30T09:34:40.269Z,81.92
2019-01-30T09:35:40.270Z,82.51
2019-01-30T09:36:41.243Z,82.40
2019-01-30T09:37:40.196Z,81.98
2019-01-30T09:38:40.275Z,82.37
2019-01-30T09:41:19.916Z,82.05
2019-01-30T09:41:55.783Z,81.21
2019-01-30T09:42:55.531Z,82.26
2019-01-30T09:43:55.515Z,81.84
2019-01-30T09:44:55.471Z,82.16
2019-01-30T09:45:55.579Z,81.74
2019-01-30T09:46:55.472Z,82.05
2019-01-30T09:47:55.452Z,82.01
2019-01-30T09:48:55.409Z,82.12
2019-01-30T09:49:56.163Z,82.12
2019-01-30T09:50:55.491Z,81.59
2019-01-30T09:51:55.380Z,81.91
2019-01-30T09:52:55.383Z,81.49
2019-01-30T09:53:57.609Z,81.38
2019-01-30T09:54:55.350Z,81.28
2019-01-30T09:55:56.383Z,81.35
2019-01-30T09:56:56.405Z,81.45
2019-01-30T09:57:55.308Z,81.45
2019-01-30T09:58:55.350Z,81.66
2019-01-30T09:59:55.337Z,81.35
2019-01-30T10:00:55.307Z,79.77
2019-01-30T10:01:55.305Z,80.22
2019-01-30T10:02:56.196Z,81.49
2019-01-30T10:03:55.250Z,81.28
2019-01-30T10:04:55.276Z,82.54
2019-01-30T10:05:55.267Z,82.12
2019-01-30T10:06:55.298Z,81.98
2019-01-30T10:07:57.179Z,81.98
2019-01-30T10:08:55.259Z,81.13
2019-01-30T10:09:55.213Z,81.87
2019-01-30T10:10:55.198Z,81.35
2019-01-30T10:11:55.196Z,81.45
2019-01-30T10:12:55.187Z,81.13
2019-01-30T10:13:55.228Z,81.24
2019-01-30T10:14:56.243Z,82.29
2019-01-30T10:15:55.103Z,82.19
2019-01-30T10:16:55.216Z,81.98
2019-01-30T10:17:55.118Z,82.26
2019-01-30T10:18:55.099Z,82.08
2019-01-30T10:19:55.687Z,82.68
2019-01-30T10:20:55.175Z,82.36
2019-01-30T10:21:55.096Z,81.98
2019-01-30T10:22:55.043Z,82.29
2019-01-30T10:23:55.032Z,82.29
2019-01-30T10:24:55.097Z,82.61
2019-01-30T10:25:55.030Z,82.50
2019-01-30T10:26:55.024Z,82.82
2019-01-30T10:27:55.958Z,82.50
2019-01-30T10:28:55.019Z,81.87
2019-01-30T10:29:58.673Z,81.77
2019-01-30T10:30:54.989Z,82.61
2019-01-30T10:31:54.977Z,82.71
2019-01-30T10:32:54.991Z,82.82
2019-01-30T10:33:54.884Z,82.71
2019-01-30T10:34:54.906Z,82.40
2019-01-30T10:35:54.915Z,82.29
2019-01-30T10:36:55.682Z,83.03
2019-01-30T10:37:54.870Z,82.92
2019-01-30T10:38:55.685Z,82.78
2019-01-30T10:39:54.819Z,83.41
2019-01-30T10:40:54.845Z,83.31
2019-01-30T10:41:54.838Z,82.89
2019-01-30T10:42:57.229Z,82.36
2019-01-30T10:43:54.806Z,82.36
2019-01-30T10:44:55.834Z,82.26
2019-01-30T10:45:54.813Z,82.57
2019-01-30T10:46:54.839Z,82.26
2019-01-30T10:47:54.703Z,82.36
2019-01-30T10:48:54.709Z,82.68
2019-01-30T10:49:54.726Z,82.78
2019-01-30T10:50:54.791Z,82.57
2019-01-30T10:51:54.745Z,82.32
2019-01-30T10:52:54.696Z,82.04
2019-01-30T10:53:54.749Z,81.84
2019-01-30T10:54:54.688Z,82.22
2019-01-30T10:55:55.189Z,82.11
2019-01-30T10:56:54.678Z,82.11
2019-01-30T10:57:55.656Z,81.65
2019-01-30T10:58:54.623Z,82.07
2019-01-30T10:59:54.607Z,81.45
2019-01-30T11:00:54.588Z,81.09
2019-01-30T11:01:54.581Z,80.15
2019-01-30T11:02:54.576Z,80.15
2019-01-30T11:03:57.381Z,80.57
2019-01-30T11:04:54.605Z,80.53
2019-01-30T11:05:54.578Z,80.85
2019-01-30T11:06:54.551Z,80.49
2019-01-30T11:07:54.527Z,78.61
2019-01-30T11:08:54.516Z,79.66
2019-01-30T11:09:54.491Z,79.44
2019-01-30T11:10:54.508Z,78.29
2019-01-30T11:11:54.509Z,79.34
2019-01-30T11:12:54.441Z,78.92
2019-01-30T11:13:54.484Z,79.52
2019-01-30T11:14:54.467Z,79.41
2019-01-30T11:15:54.508Z,78.25
2019-01-30T11:16:54.432Z,77.80
2019-01-30T11:17:54.422Z,77.80
2019-01-30T11:18:55.152Z,77.70
2019-01-30T11:19:54.369Z,78.33
2019-01-30T11:20:54.388Z,78.19
2019-01-30T11:21:54.356Z,79.55
2019-01-30T11:22:54.382Z,77.07
2019-01-30T11:23:54.400Z,76.51
2019-01-30T11:24:55.827Z,77.56
2019-01-30T11:25:56.876Z,76.19
2019-01-30T11:26:54.359Z,76.33
2019-01-30T11:27:54.394Z,76.23
2019-01-30T11:28:54.310Z,76.40
2019-01-30T11:29:54.293Z,77.34
2019-01-30T11:30:54.362Z,77.83
2019-01-30T11:31:54.242Z,76.02
2019-01-30T11:32:55.494Z,76.16
2019-01-30T11:33:54.231Z,75.60
2019-01-30T11:34:54.184Z,76.23
2019-01-30T11:35:54.233Z,75.18
2019-01-30T11:36:54.192Z,74.87
2019-01-30T11:37:54.201Z,75.21
2019-01-30T11:38:54.207Z,75.29
2019-01-30T11:39:54.165Z,74.45
2019-01-30T11:40:54.224Z,74.66
2019-01-30T11:41:54.149Z,74.24
2019-01-30T11:42:54.115Z,74.31
2019-01-30T11:43:54.122Z,75.78
2019-01-30T11:44:54.106Z,73.58
2019-01-30T11:45:55.095Z,73.58
2019-01-30T11:46:54.626Z,73.68
2019-01-30T11:47:55.071Z,75.15
2019-01-30T11:48:56.394Z,74.38
2019-01-30T11:49:55.067Z,73.23
2019-01-30T11:50:55.007Z,72.71
2019-01-30T11:51:54.030Z,73.05
2019-01-30T11:52:54.597Z,72.95
2019-01-30T11:53:54.008Z,73.50
2019-01-30T11:54:54.014Z,74.24
2019-01-30T11:55:54.011Z,74.21
2019-01-30T11:56:53.972Z,74.21
2019-01-30T11:57:53.920Z,73.99
2019-01-30T11:58:53.933Z,73.99
2019-01-30T11:59:53.942Z,74.52
2019-01-30T12:00:53.933Z,73.40
2019-01-30T12:01:53.884Z,75.49
2019-01-30T12:02:53.895Z,75.88
2019-01-30T12:03:53.872Z,73.47
2019-01-30T12:04:53.888Z,73.30
2019-01-30T12:05:53.843Z,74.84
2019-01-30T12:06:53.835Z,74.80
2019-01-30T12:07:53.836Z,73.58
2019-01-30T12:08:54.817Z,74.17
2019-01-30T12:09:55.832Z,76.12
2019-01-30T12:10:53.827Z,74.42
2019-01-30T12:11:53.772Z,73.06
2019-01-30T12:12:53.823Z,72.64
2019-01-30T12:13:53.775Z,72.78
2019-01-30T12:14:53.739Z,72.88
2019-01-30T12:15:53.789Z,73.93
2019-01-30T12:16:53.718Z,72.92
2019-01-30T12:17:53.706Z,73.54
2019-01-30T12:18:53.714Z,74.69
2019-01-30T12:19:53.700Z,75.67
2019-01-30T12:20:53.699Z,76.20
2019-01-30T12:21:53.667Z,73.02
2019-01-30T12:22:53.648Z,73.52
2019-01-30T12:23:53.653Z,73.79
2019-01-30T12:24:53.619Z,71.81
2019-01-30T12:26:12.185Z,69.65
2019-01-30T12:26:53.684Z,71.60
2019-01-30T12:27:53.598Z,72.58
2019-01-30T12:28:53.615Z,70.10
2019-01-30T12:29:53.596Z,71.28
2019-01-30T12:30:53.570Z,71.42
2019-01-30T12:31:53.569Z,73.33
2019-01-30T12:32:53.566Z,73.54
2019-01-30T12:33:53.545Z,74.27
2019-01-30T12:34:53.507Z,75.49
2019-01-30T12:35:53.492Z,73.61
2019-01-30T12:36:53.527Z,74.55
2019-01-30T12:37:53.504Z,74.94
2019-01-30T12:38:53.477Z,74.63
2019-01-30T12:39:53.443Z,74.63
2019-01-30T12:40:53.532Z,73.55
2019-01-30T12:41:53.431Z,72.22
2019-01-30T12:42:53.488Z,72.53
2019-01-30T12:43:53.419Z,72.05
2019-01-30T12:44:53.391Z,73.02
2019-01-30T12:45:53.386Z,72.85
2019-01-30T12:46:53.365Z,73.16
2019-01-30T12:47:53.382Z,74.84
2019-01-30T12:48:53.403Z,74.59
2019-01-30T12:49:53.333Z,74.38
2019-01-30T12:50:53.336Z,73.30
2019-01-30T12:51:53.313Z,71.31
2019-01-30T12:52:53.328Z,71.52
2019-01-30T12:53:53.341Z,72.78
2019-01-30T12:54:53.309Z,71.66
2019-01-30T12:55:53.290Z,73.44
2019-01-30T12:56:53.263Z,74.07
2019-01-30T12:57:53.302Z,73.61
2019-01-30T12:58:53.262Z,73.90
2019-01-30T12:59:53.285Z,74.52
2019-01-30T13:00:53.220Z,72.19
2019-01-30T13:01:53.243Z,73.55
2019-01-30T13:02:53.216Z,74.24
2019-01-30T13:03:53.174Z,74.04
2019-01-30T13:04:53.206Z,72.89
2019-01-30T13:05:53.171Z,72.68
2019-01-30T13:06:53.152Z,72.78
2019-01-30T13:07:53.128Z,72.05
2019-01-30T13:08:53.129Z,72.08
2019-01-30T13:09:53.113Z,72.78
2019-01-30T13:10:53.108Z,72.68
2019-01-30T13:11:53.107Z,72.05
2019-01-30T13:12:53.130Z,72.81
2019-01-30T13:13:53.072Z,73.02
2019-01-30T13:14:53.061Z,73.86
2019-01-30T13:15:53.080Z,73.58
2019-01-30T13:16:53.042Z,73.16
2019-01-30T13:17:53.032Z,72.22
2019-01-30T13:18:53.002Z,73.54
2019-01-30T13:19:53.017Z,73.93
2019-01-30T13:20:53.007Z,74.58
2019-01-30T13:21:52.992Z,75.29
2019-01-30T13:22:52.993Z,75.08
2019-01-30T13:23:52.967Z,75.84
2019-01-30T13:24:52.933Z,75.18
2019-01-30T13:26:13.991Z,74.58
2019-01-30T13:26:53.004Z,74.83
2019-01-30T13:27:52.908Z,75.70
2019-01-30T13:28:52.897Z,76.43
2019-01-30T13:29:52.903Z,76.12
2019-01-30T13:30:52.932Z,76.33
2019-01-30T13:31:52.885Z,76.37
2019-01-30T13:32:52.902Z,76.26
2019-01-30T13:33:53.861Z,76.29
2019-01-30T13:34:52.844Z,76.29
2019-01-30T13:35:52.844Z,76.19
2019-01-30T13:36:52.848Z,76.82
2019-01-30T13:37:52.837Z,77.24
2019-01-30T13:38:52.845Z,76.09
2019-01-30T13:39:52.769Z,76.51
2019-01-30T13:40:52.775Z,76.82
2019-01-30T13:41:52.860Z,77.03
2019-01-30T13:42:52.755Z,76.82
2019-01-30T13:43:52.752Z,76.40
2019-01-30T13:44:52.756Z,76.61
2019-01-30T13:45:52.735Z,77.00
2019-01-30T13:46:52.693Z,76.09
2019-01-30T13:47:52.685Z,76.51
2019-01-30T13:48:52.698Z,77.24
2019-01-30T13:49:52.785Z,77.56
2019-01-30T13:50:52.704Z,77.31
2019-01-30T13:51:52.715Z,76.47
2019-01-30T13:52:52.647Z,77.10
2019-01-30T13:53:52.630Z,76.96
2019-01-30T13:54:52.648Z,76.05
2019-01-30T13:55:52.722Z,77.70
2019-01-30T13:56:52.697Z,78.01
2019-01-30T13:57:52.627Z,76.96
2019-01-30T13:58:52.611Z,75.92
2019-01-30T13:59:52.632Z,76.43
2019-01-30T14:00:52.559Z,76.12